Strait Of Dover, United Kingdom
Current Conditions -  °F | °C
As of 8:00 AM on Sunday 26 Oct 2014 (Local Time) from LFAT Reporting Station
Overcast Overcast  
Wind Chill: 54°   Ceiling: 3600
Heat Index: 54°   Visibility: 6mi
Dew Point: 50°   Wind: 6mph
Humidity: 88%   Direction: 150°SSE
Pressure: 30.21"   Gusts: NA
Location:  51°N, 1.42°E
Report Text: LFAT 260700Z AUTO 15005KT 9999 OVC036 12/10 Q1023
Loading
Personal Weather Stations






























Interactive Weather Map New forecast layout! Learn more

10-Day Weather Forecast

Advertisements
Track Severe Weather on mobile